Salome, Arizona
Current Conditions -  °F | °C
As of 8:15 PM on Thursday 18 Dec 2014 (Local Time) from KBXK Reporting Station
Clear Clear  
Wind Chill: 46°   Ceiling: Unl
Heat Index: 48°   Visibility: 10mi
Dew Point: 48°   Wind: 5mph
Humidity: 100%   Direction: 10°N
Pressure: 30.17"   Gusts: NA
Location:  33.78°N, 113.62°W
Report Text: KBXK 190315Z AUTO 01004KT 10SM CLR 09/09 A3017 RMK AO1
Loading
Personal Weather Stations






























Interactive Weather Map New forecast layout! Learn more

10-Day Weather Forecast

Advertisements
Track Severe Weather on mobile